sensor_id;sensor_type;location;lat;lon;timestamp;temperature;humidity
39033;DHT22;24794;51.982;5.878;2023-03-01T00:00:51;4.00;87.40
39033;DHT22;24794;51.982;5.878;2023-03-01T00:01:52;4.00;87.40
39033;DHT22;24794;51.982;5.878;2023-03-01T00:02:52;4.00;87.40
39033;DHT22;24794;51.982;5.878;2023-03-01T00:03:54;4.00;87.50
39033;DHT22;24794;51.982;5.878;2023-03-01T00:04:54;4.00;87.60
39033;DHT22;24794;51.982;5.878;2023-03-01T00:05:55;4.00;87.60
39033;DHT22;24794;51.982;5.878;2023-03-01T00:06:56;4.00;87.60
39033;DHT22;24794;51.982;5.878;2023-03-01T00:07:56;4.00;87.70
39033;DHT22;24794;51.982;5.878;2023-03-01T00:08:57;4.00;87.70
39033;DHT22;24794;51.982;5.878;2023-03-01T00:09:57;4.00;87.80
39033;DHT22;24794;51.982;5.878;2023-03-01T00:11:05;4.00;87.80
39033;DHT22;24794;51.982;5.878;2023-03-01T00:12:07;4.00;87.80
39033;DHT22;24794;51.982;5.878;2023-03-01T00:13:07;4.00;87.90
39033;DHT22;24794;51.982;5.878;2023-03-01T00:14:08;4.00;87.90
39033;DHT22;24794;51.982;5.878;2023-03-01T00:15:08;4.00;87.90
39033;DHT22;24794;51.982;5.878;2023-03-01T00:16:12;4.00;87.90
39033;DHT22;24794;51.982;5.878;2023-03-01T00:17:13;4.00;87.90
39033;DHT22;24794;51.982;5.878;2023-03-01T00:18:13;4.00;88.00
39033;DHT22;24794;51.982;5.878;2023-03-01T00:19:16;3.90;88.00
39033;DHT22;24794;51.982;5.878;2023-03-01T00:20:17;4.00;88.20
39033;DHT22;24794;51.982;5.878;2023-03-01T00:21:18;4.00;88.20
39033;DHT22;24794;51.982;5.878;2023-03-01T00:22:19;3.90;88.20
39033;DHT22;24794;51.982;5.878;2023-03-01T00:23:21;3.90;88.20
39033;DHT22;24794;51.982;5.878;2023-03-01T00:24:21;3.90;88.30
39033;DHT22;24794;51.982;5.878;2023-03-01T00:25:22;3.90;88.30
39033;DHT22;24794;51.982;5.878;2023-03-01T00:26:24;3.90;88.40
39033;DHT22;24794;51.982;5.878;2023-03-01T00:27:25;3.80;88.40
39033;DHT22;24794;51.982;5.878;2023-03-01T00:28:26;3.90;88.50
39033;DHT22;24794;51.982;5.878;2023-03-01T00:29:26;3.80;88.60
39033;DHT22;24794;51.982;5.878;2023-03-01T00:30:27;3.80;88.70
39033;DHT22;24794;51.982;5.878;2023-03-01T00:31:29;3.80;88.70
39033;DHT22;24794;51.982;5.878;2023-03-01T00:32:30;3.70;88.70
39033;DHT22;24794;51.982;5.878;2023-03-01T00:33:31;3.70;88.80
39033;DHT22;24794;51.982;5.878;2023-03-01T00:34:31;3.70;88.90
39033;DHT22;24794;51.982;5.878;2023-03-01T00:35:33;3.60;89.00
39033;DHT22;24794;51.982;5.878;2023-03-01T00:36:35;3.60;89.00
39033;DHT22;24794;51.982;5.878;2023-03-01T00:37:36;3.60;89.20
39033;DHT22;24794;51.982;5.878;2023-03-01T00:38:38;3.50;89.20
39033;DHT22;24794;51.982;5.878;2023-03-01T00:39:39;3.60;89.30
39033;DHT22;24794;51.982;5.878;2023-03-01T00:40:40;3.50;89.30
39033;DHT22;24794;51.982;5.878;2023-03-01T00:41:41;3.50;89.40
39033;DHT22;24794;51.982;5.878;2023-03-01T00:42:42;3.40;89.40
39033;DHT22;24794;51.982;5.878;2023-03-01T00:43:43;3.40;89.50
39033;DHT22;24794;51.982;5.878;2023-03-01T00:44:44;3.40;89.60
39033;DHT22;24794;51.982;5.878;2023-03-01T00:45:45;3.40;89.70
39033;DHT22;24794;51.982;5.878;2023-03-01T00:46:45;3.30;90.10
39033;DHT22;24794;51.982;5.878;2023-03-01T00:47:46;3.30;89.80
39033;DHT22;24794;51.982;5.878;2023-03-01T00:48:48;3.30;89.90
39033;DHT22;24794;51.982;5.878;2023-03-01T00:49:48;3.30;89.90
39033;DHT22;24794;51.982;5.878;2023-03-01T00:50:49;3.30;90.00
39033;DHT22;24794;51.982;5.878;2023-03-01T00:51:49;3.30;90.00
39033;DHT22;24794;51.982;5.878;2023-03-01T00:52:54;3.30;90.00
39033;DHT22;24794;51.982;5.878;2023-03-01T00:53:59;3.40;90.00
39033;DHT22;24794;51.982;5.878;2023-03-01T00:55:00;3.30;90.00
39033;DHT22;24794;51.982;5.878;2023-03-01T00:56:01;3.30;90.00
39033;DHT22;24794;51.982;5.878;2023-03-01T00:57:01;3.30;90.00
39033;DHT22;24794;51.982;5.878;2023-03-01T00:58:02;3.30;90.00
39033;DHT22;24794;51.982;5.878;2023-03-01T00:59:02;3.30;90.00
39033;DHT22;24794;51.982;5.878;2023-03-01T01:00:07;3.30;90.00
39033;DHT22;24794;51.982;5.878;2023-03-01T01:01:15;3.30;90.10
39033;DHT22;24794;51.982;5.878;2023-03-01T01:02:19;3.30;90.10
39033;DHT22;24794;51.982;5.878;2023-03-01T01:03:21;3.30;90.10
39033;DHT22;24794;51.982;5.878;2023-03-01T01:04:21;3.30;90.10
39033;DHT22;24794;51.982;5.878;2023-03-01T01:05:22;3.30;90.10
39033;DHT22;24794;51.982;5.878;2023-03-01T01:06:26;3.20;90.10
39033;DHT22;24794;51.982;5.878;2023-03-01T01:07:27;3.20;90.40
39033;DHT22;24794;51.982;5.878;2023-03-01T01:08:27;3.20;90.20
39033;DHT22;24794;51.982;5.878;2023-03-01T01:09:28;3.20;90.20
39033;DHT22;24794;51.982;5.878;2023-03-01T01:10:28;3.10;90.20
39033;DHT22;24794;51.982;5.878;2023-03-01T01:11:29;3.20;90.30
39033;DHT22;24794;51.982;5.878;2023-03-01T01:12:30;3.20;90.30
39033;DHT22;24794;51.982;5.878;2023-03-01T01:13:31;3.10;90.30
39033;DHT22;24794;51.982;5.878;2023-03-01T01:14:31;3.10;90.30
39033;DHT22;24794;51.982;5.878;2023-03-01T01:15:35;3.10;90.30
39033;DHT22;24794;51.982;5.878;2023-03-01T01:16:36;3.10;90.40
39033;DHT22;24794;51.982;5.878;2023-03-01T01:17:36;3.10;90.40
39033;DHT22;24794;51.982;5.878;2023-03-01T01:18:37;3.10;90.40
39033;DHT22;24794;51.982;5.878;2023-03-01T01:19:38;3.20;90.40
39033;DHT22;24794;51.982;5.878;2023-03-01T01:20:38;3.20;90.40
39033;DHT22;24794;51.982;5.878;2023-03-01T01:21:39;3.20;90.40
39033;DHT22;24794;51.982;5.878;2023-03-01T01:22:41;3.20;90.50
39033;DHT22;24794;51.982;5.878;2023-03-01T01:23:43;3.20;90.40
39033;DHT22;24794;51.982;5.878;2023-03-01T01:24:44;3.20;90.40
39033;DHT22;24794;51.982;5.878;2023-03-01T01:25:45;3.20;90.40
39033;DHT22;24794;51.982;5.878;2023-03-01T01:26:45;3.20;90.40
39033;DHT22;24794;51.982;5.878;2023-03-01T01:27:46;3.20;90.40
39033;DHT22;24794;51.982;5.878;2023-03-01T01:28:47;3.20;90.40
39033;DHT22;24794;51.982;5.878;2023-03-01T01:29:48;3.20;90.50
39033;DHT22;24794;51.982;5.878;2023-03-01T01:30:48;3.20;90.50
39033;DHT22;24794;51.982;5.878;2023-03-01T01:31:49;3.20;90.50
39033;DHT22;24794;51.982;5.878;2023-03-01T01:32:50;3.20;90.50
39033;DHT22;24794;51.982;5.878;2023-03-01T01:33:51;3.20;90.50
39033;DHT22;24794;51.982;5.878;2023-03-01T01:34:52;3.30;90.50
39033;DHT22;24794;51.982;5.878;2023-03-01T01:35:53;3.20;90.50
39033;DHT22;24794;51.982;5.878;2023-03-01T01:36:54;3.20;90.50
39033;DHT22;24794;51.982;5.878;2023-03-01T01:37:54;3.20;90.50
39033;DHT22;24794;51.982;5.878;2023-03-01T01:38:55;3.20;90.50
39033;DHT22;24794;51.982;5.878;2023-03-01T01:39:57;3.20;90.50
39033;DHT22;24794;51.982;5.878;2023-03-01T01:40:59;3.10;90.50
39033;DHT22;24794;51.982;5.878;2023-03-01T01:42:00;3.20;90.50
39033;DHT22;24794;51.982;5.878;2023-03-01T01:43:01;3.20;90.50
39033;DHT22;24794;51.982;5.878;2023-03-01T01:44:20;3.10;90.50
39033;DHT22;24794;51.982;5.878;2023-03-01T01:46:34;3.10;90.60
39033;DHT22;24794;51.982;5.878;2023-03-01T01:47:37;3.10;90.60
39033;DHT22;24794;51.982;5.878;2023-03-01T01:48:49;3.10;90.60
39033;DHT22;24794;51.982;5.878;2023-03-01T01:49:59;3.00;90.60
39033;DHT22;24794;51.982;5.878;2023-03-01T01:51:00;3.00;90.60
39033;DHT22;24794;51.982;5.878;2023-03-01T01:52:16;3.00;90.60
39033;DHT22;24794;51.982;5.878;2023-03-01T01:53:18;3.00;90.70
39033;DHT22;24794;51.982;5.878;2023-03-01T01:54:23;3.00;90.70
39033;DHT22;24794;51.982;5.878;2023-03-01T01:55:27;3.00;90.70
39033;DHT22;24794;51.982;5.878;2023-03-01T01:56:28;3.00;90.70
39033;DHT22;24794;51.982;5.878;2023-03-01T01:57:46;3.00;90.70
39033;DHT22;24794;51.982;5.878;2023-03-01T01:58:48;3.00;90.70
39033;DHT22;24794;51.982;5.878;2023-03-01T01:59:52;3.00;90.70
39033;DHT22;24794;51.982;5.878;2023-03-01T02:00:54;3.00;90.70
39033;DHT22;24794;51.982;5.878;2023-03-01T02:01:56;3.00;90.70
39033;DHT22;24794;51.982;5.878;2023-03-01T02:03:02;3.00;90.70
39033;DHT22;24794;51.982;5.878;2023-03-01T02:04:04;3.00;90.80
39033;DHT22;24794;51.982;5.878;2023-03-01T02:05:14;3.00;90.80
39033;DHT22;24794;51.982;5.878;2023-03-01T02:06:21;3.00;90.80
39033;DHT22;24794;51.982;5.878;2023-03-01T02:07:29;3.00;90.80
39033;DHT22;24794;51.982;5.878;2023-03-01T02:08:32;3.00;90.70
39033;DHT22;24794;51.982;5.878;2023-03-01T02:09:35;3.00;90.70
39033;DHT22;24794;51.982;5.878;2023-03-01T02:10:37;3.00;90.70
39033;DHT22;24794;51.982;5.878;2023-03-01T02:11:38;3.00;90.70
39033;DHT22;24794;51.982;5.878;2023-03-01T02:12:39;3.00;90.70
39033;DHT22;24794;51.982;5.878;2023-03-01T02:13:40;3.00;90.70
39033;DHT22;24794;51.982;5.878;2023-03-01T02:14:41;3.00;90.70
39033;DHT22;24794;51.982;5.878;2023-03-01T02:15:42;3.00;90.70
39033;DHT22;24794;51.982;5.878;2023-03-01T02:16:44;3.00;90.70
39033;DHT22;24794;51.982;5.878;2023-03-01T02:17:45;3.00;90.70
39033;DHT22;24794;51.982;5.878;2023-03-01T02:18:46;3.00;90.70
39033;DHT22;24794;51.982;5.878;2023-03-01T02:22:45;3.00;90.70
39033;DHT22;24794;51.982;5.878;2023-03-01T02:23:47;3.00;90.70
39033;DHT22;24794;51.982;5.878;2023-03-01T02:27:15;3.00;90.70
39033;DHT22;24794;51.982;5.878;2023-03-01T02:29:17;3.00;90.70
39033;DHT22;24794;51.982;5.878;2023-03-01T02:30:19;2.90;90.70
39033;DHT22;24794;51.982;5.878;2023-03-01T02:31:21;3.00;90.70
39033;DHT22;24794;51.982;5.878;2023-03-01T02:32:41;3.00;90.70
39033;DHT22;24794;51.982;5.878;2023-03-01T02:33:43;3.00;90.70
39033;DHT22;24794;51.982;5.878;2023-03-01T02:34:44;3.00;91.00
39033;DHT22;24794;51.982;5.878;2023-03-01T02:35:45;3.00;90.70
39033;DHT22;24794;51.982;5.878;2023-03-01T02:36:55;3.00;90.70
39033;DHT22;24794;51.982;5.878;2023-03-01T02:37:56;3.00;91.00
39033;DHT22;24794;51.982;5.878;2023-03-01T02:39:03;3.00;90.70
39033;DHT22;24794;51.982;5.878;2023-03-01T02:40:13;3.00;90.70
39033;DHT22;24794;51.982;5.878;2023-03-01T02:41:16;3.00;90.70
39033;DHT22;24794;51.982;5.878;2023-03-01T02:42:22;3.00;90.70
39033;DHT22;24794;51.982;5.878;2023-03-01T02:43:27;3.00;91.00
39033;DHT22;24794;51.982;5.878;2023-03-01T02:44:29;3.00;90.70
39033;DHT22;24794;51.982;5.878;2023-03-01T02:45:29;3.00;90.70
39033;DHT22;24794;51.982;5.878;2023-03-01T02:46:30;3.00;90.80
39033;DHT22;24794;51.982;5.878;2023-03-01T02:47:30;3.00;90.80
39033;DHT22;24794;51.982;5.878;2023-03-01T02:48:46;3.00;90.80
39033;DHT22;24794;51.982;5.878;2023-03-01T02:49:46;3.00;90.80
39033;DHT22;24794;51.982;5.878;2023-03-01T02:51:01;3.00;91.10
39033;DHT22;24794;51.982;5.878;2023-03-01T02:53:39;2.90;90.80
39033;DHT22;24794;51.982;5.878;2023-03-01T02:55:10;3.00;90.90
39033;DHT22;24794;51.982;5.878;2023-03-01T02:56:11;3.00;90.90
39033;DHT22;24794;51.982;5.878;2023-03-01T02:57:13;3.00;90.80
39033;DHT22;24794;51.982;5.878;2023-03-01T02:58:14;3.00;90.90
39033;DHT22;24794;51.982;5.878;2023-03-01T02:59:18;3.00;90.80
39033;DHT22;24794;51.982;5.878;2023-03-01T03:00:40;3.00;90.80
39033;DHT22;24794;51.982;5.878;2023-03-01T03:01:45;3.00;90.80
39033;DHT22;24794;51.982;5.878;2023-03-01T03:02:48;3.00;90.80
39033;DHT22;24794;51.982;5.878;2023-03-01T03:03:49;3.00;90.90
39033;DHT22;24794;51.982;5.878;2023-03-01T03:04:49;3.00;90.90
39033;DHT22;24794;51.982;5.878;2023-03-01T03:05:50;3.00;90.90
39033;DHT22;24794;51.982;5.878;2023-03-01T03:06:51;3.00;90.90
39033;DHT22;24794;51.982;5.878;2023-03-01T03:07:51;3.00;90.90
39033;DHT22;24794;51.982;5.878;2023-03-01T03:08:52;3.00;90.90
39033;DHT22;24794;51.982;5.878;2023-03-01T03:09:53;3.00;90.90
39033;DHT22;24794;51.982;5.878;2023-03-01T03:10:53;3.00;91.00
39033;DHT22;24794;51.982;5.878;2023-03-01T03:11:54;3.00;91.00
39033;DHT22;24794;51.982;5.878;2023-03-01T03:13:03;3.00;91.00
39033;DHT22;24794;51.982;5.878;2023-03-01T03:14:04;3.00;91.00
39033;DHT22;24794;51.982;5.878;2023-03-01T03:15:06;3.00;91.10
39033;DHT22;24794;51.982;5.878;2023-03-01T03:16:09;3.00;91.10
39033;DHT22;24794;51.982;5.878;2023-03-01T03:17:09;3.00;91.10
39033;DHT22;24794;51.982;5.878;2023-03-01T03:18:15;2.90;91.10
39033;DHT22;24794;51.982;5.878;2023-03-01T03:19:18;3.00;91.10
39033;DHT22;24794;51.982;5.878;2023-03-01T03:20:22;3.00;91.10
39033;DHT22;24794;51.982;5.878;2023-03-01T03:21:23;3.00;91.10
39033;DHT22;24794;51.982;5.878;2023-03-01T03:22:24;3.00;91.10
39033;DHT22;24794;51.982;5.878;2023-03-01T03:23:24;3.00;91.10
39033;DHT22;24794;51.982;5.878;2023-03-01T03:24:25;3.00;91.10
39033;DHT22;24794;51.982;5.878;2023-03-01T03:25:27;3.00;91.10
39033;DHT22;24794;51.982;5.878;2023-03-01T03:26:28;3.10;91.10
39033;DHT22;24794;51.982;5.878;2023-03-01T03:27:29;3.10;91.10
39033;DHT22;24794;51.982;5.878;2023-03-01T03:28:33;3.10;91.10
39033;DHT22;24794;51.982;5.878;2023-03-01T03:29:34;3.10;91.10
39033;DHT22;24794;51.982;5.878;2023-03-01T03:30:38;3.10;91.00
39033;DHT22;24794;51.982;5.878;2023-03-01T03:31:42;3.10;91.10
39033;DHT22;24794;51.982;5.878;2023-03-01T03:32:44;3.10;91.10
39033;DHT22;24794;51.982;5.878;2023-03-01T03:33:52;3.20;91.10
39033;DHT22;24794;51.982;5.878;2023-03-01T03:34:52;3.10;91.10
39033;DHT22;24794;51.982;5.878;2023-03-01T03:35:53;3.10;91.10
39033;DHT22;24794;51.982;5.878;2023-03-01T03:36:54;3.20;91.00
39033;DHT22;24794;51.982;5.878;2023-03-01T03:38:03;3.10;91.00
39033;DHT22;24794;51.982;5.878;2023-03-01T03:39:06;3.20;91.00
39033;DHT22;24794;51.982;5.878;2023-03-01T03:40:07;3.20;91.00
39033;DHT22;24794;51.982;5.878;2023-03-01T03:41:16;3.20;91.00
39033;DHT22;24794;51.982;5.878;2023-03-01T03:42:17;3.20;91.00
39033;DHT22;24794;51.982;5.878;2023-03-01T03:43:20;3.20;91.00
39033;DHT22;24794;51.982;5.878;2023-03-01T03:44:21;3.20;91.00
39033;DHT22;24794;51.982;5.878;2023-03-01T03:45:22;3.10;91.00
39033;DHT22;24794;51.982;5.878;2023-03-01T03:46:22;3.20;91.10
39033;DHT22;24794;51.982;5.878;2023-03-01T03:47:23;3.10;91.10
39033;DHT22;24794;51.982;5.878;2023-03-01T03:48:24;3.10;91.10
39033;DHT22;24794;51.982;5.878;2023-03-01T03:49:25;3.10;91.20
39033;DHT22;24794;51.982;5.878;2023-03-01T03:50:25;3.10;91.20
39033;DHT22;24794;51.982;5.878;2023-03-01T03:51:26;3.10;91.20
39033;DHT22;24794;51.982;5.878;2023-03-01T03:52:26;3.10;91.20
39033;DHT22;24794;51.982;5.878;2023-03-01T03:53:28;3.10;91.20
39033;DHT22;24794;51.982;5.878;2023-03-01T03:54:29;3.10;91.20
39033;DHT22;24794;51.982;5.878;2023-03-01T03:55:30;3.10;91.30
39033;DHT22;24794;51.982;5.878;2023-03-01T03:56:30;3.10;91.30
39033;DHT22;24794;51.982;5.878;2023-03-01T03:57:31;3.10;91.40
39033;DHT22;24794;51.982;5.878;2023-03-01T03:58:32;3.10;91.40
39033;DHT22;24794;51.982;5.878;2023-03-01T03:59:33;3.10;91.40
39033;DHT22;24794;51.982;5.878;2023-03-01T04:00:40;3.10;91.40
39033;DHT22;24794;51.982;5.878;2023-03-01T04:01:41;3.10;91.40
39033;DHT22;24794;51.982;5.878;2023-03-01T04:02:42;3.10;91.40
39033;DHT22;24794;51.982;5.878;2023-03-01T04:03:43;3.10;91.40
39033;DHT22;24794;51.982;5.878;2023-03-01T04:04:47;3.00;91.40
39033;DHT22;24794;51.982;5.878;2023-03-01T04:05:50;3.00;91.50
39033;DHT22;24794;51.982;5.878;2023-03-01T04:06:53;3.00;91.50
39033;DHT22;24794;51.982;5.878;2023-03-01T04:07:54;3.00;91.50
39033;DHT22;24794;51.982;5.878;2023-03-01T04:09:01;3.00;91.60
39033;DHT22;24794;51.982;5.878;2023-03-01T04:10:06;3.00;91.60
39033;DHT22;24794;51.982;5.878;2023-03-01T04:11:08;3.00;91.60
39033;DHT22;24794;51.982;5.878;2023-03-01T04:12:26;3.00;91.70
39033;DHT22;24794;51.982;5.878;2023-03-01T04:13:27;3.00;91.70
39033;DHT22;24794;51.982;5.878;2023-03-01T04:14:28;3.00;91.70
39033;DHT22;24794;51.982;5.878;2023-03-01T04:15:28;3.00;91.70
39033;DHT22;24794;51.982;5.878;2023-03-01T04:16:29;2.90;91.70
39033;DHT22;24794;51.982;5.878;2023-03-01T04:17:30;3.00;91.70
39033;DHT22;24794;51.982;5.878;2023-03-01T04:18:30;2.90;91.70
39033;DHT22;24794;51.982;5.878;2023-03-01T04:19:32;3.00;91.80
39033;DHT22;24794;51.982;5.878;2023-03-01T04:20:36;2.90;91.80
39033;DHT22;24794;51.982;5.878;2023-03-01T04:21:37;2.90;91.80
39033;DHT22;24794;51.982;5.878;2023-03-01T04:22:38;2.90;91.80
39033;DHT22;24794;51.982;5.878;2023-03-01T04:23:39;2.80;91.80
39033;DHT22;24794;51.982;5.878;2023-03-01T04:24:41;2.80;91.80
39033;DHT22;24794;51.982;5.878;2023-03-01T04:25:55;2.80;91.90
39033;DHT22;24794;51.982;5.878;2023-03-01T04:26:57;2.80;92.20
39033;DHT22;24794;51.982;5.878;2023-03-01T04:27:57;2.80;91.90
39033;DHT22;24794;51.982;5.878;2023-03-01T04:28:58;2.80;91.90
39033;DHT22;24794;51.982;5.878;2023-03-01T04:29:58;2.80;91.90
39033;DHT22;24794;51.982;5.878;2023-03-01T04:31:03;2.70;91.90
39033;DHT22;24794;51.982;5.878;2023-03-01T04:32:13;2.80;92.00
39033;DHT22;24794;51.982;5.878;2023-03-01T04:33:16;2.70;92.00
39033;DHT22;24794;51.982;5.878;2023-03-01T04:34:17;2.80;92.00
39033;DHT22;24794;51.982;5.878;2023-03-01T04:35:18;2.70;92.00
39033;DHT22;24794;51.982;5.878;2023-03-01T04:36:20;2.70;92.00
39033;DHT22;24794;51.982;5.878;2023-03-01T04:37:21;2.70;92.10
39033;DHT22;24794;51.982;5.878;2023-03-01T04:38:22;2.70;92.40
39033;DHT22;24794;51.982;5.878;2023-03-01T04:39:23;2.70;92.10
39033;DHT22;24794;51.982;5.878;2023-03-01T04:40:23;2.70;92.10
39033;DHT22;24794;51.982;5.878;2023-03-01T04:41:25;2.70;92.20
39033;DHT22;24794;51.982;5.878;2023-03-01T04:42:26;2.70;92.20
39033;DHT22;24794;51.982;5.878;2023-03-01T04:43:27;2.70;92.20
39033;DHT22;24794;51.982;5.878;2023-03-01T04:44:27;2.70;92.20
39033;DHT22;24794;51.982;5.878;2023-03-01T04:45:28;2.70;92.20
39033;DHT22;24794;51.982;5.878;2023-03-01T04:46:28;2.70;92.20
39033;DHT22;24794;51.982;5.878;2023-03-01T04:47:29;2.70;92.20
39033;DHT22;24794;51.982;5.878;2023-03-01T04:48:30;2.70;92.20
39033;DHT22;24794;51.982;5.878;2023-03-01T04:49:31;2.70;92.20
39033;DHT22;24794;51.982;5.878;2023-03-01T04:50:32;2.70;92.20
39033;DHT22;24794;51.982;5.878;2023-03-01T04:51:33;2.60;92.20
39033;DHT22;24794;51.982;5.878;2023-03-01T04:52:33;2.70;92.30
39033;DHT22;24794;51.982;5.878;2023-03-01T04:53:35;2.70;92.30
39033;DHT22;24794;51.982;5.878;2023-03-01T04:54:36;2.60;92.20
39033;DHT22;24794;51.982;5.878;2023-03-01T04:55:37;2.60;92.20
39033;DHT22;24794;51.982;5.878;2023-03-01T04:56:38;2.60;92.30
39033;DHT22;24794;51.982;5.878;2023-03-01T04:57:39;2.60;92.30
39033;DHT22;24794;51.982;5.878;2023-03-01T04:58:40;2.60;92.30
39033;DHT22;24794;51.982;5.878;2023-03-01T04:59:40;2.60;92.30
39033;DHT22;24794;51.982;5.878;2023-03-01T05:00:41;2.50;92.30
39033;DHT22;24794;51.982;5.878;2023-03-01T05:01:42;2.50;92.30
39033;DHT22;24794;51.982;5.878;2023-03-01T05:02:43;2.50;92.40
39033;DHT22;24794;51.982;5.878;2023-03-01T05:03:45;2.50;92.40
39033;DHT22;24794;51.982;5.878;2023-03-01T05:04:45;2.50;92.40
39033;DHT22;24794;51.982;5.878;2023-03-01T05:05:48;2.50;92.50
39033;DHT22;24794;51.982;5.878;2023-03-01T05:06:49;2.50;92.50
39033;DHT22;24794;51.982;5.878;2023-03-01T05:07:49;2.50;92.50
39033;DHT22;24794;51.982;5.878;2023-03-01T05:08:50;2.50;92.50
39033;DHT22;24794;51.982;5.878;2023-03-01T05:09:50;2.50;92.50
39033;DHT22;24794;51.982;5.878;2023-03-01T05:10:52;2.60;92.50
39033;DHT22;24794;51.982;5.878;2023-03-01T05:11:53;2.60;92.50
39033;DHT22;24794;51.982;5.878;2023-03-01T05:12:53;2.60;92.50
39033;DHT22;24794;51.982;5.878;2023-03-01T05:13:54;2.60;92.50
39033;DHT22;24794;51.982;5.878;2023-03-01T05:14:55;2.60;92.50
39033;DHT22;24794;51.982;5.878;2023-03-01T05:15:58;2.60;92.50
39033;DHT22;24794;51.982;5.878;2023-03-01T05:16:59;2.60;92.50
39033;DHT22;24794;51.982;5.878;2023-03-01T05:18:04;2.60;92.50
39033;DHT22;24794;51.982;5.878;2023-03-01T05:19:07;2.60;92.50
39033;DHT22;24794;51.982;5.878;2023-03-01T05:20:15;2.60;92.50
39033;DHT22;24794;51.982;5.878;2023-03-01T05:21:16;2.60;92.50
39033;DHT22;24794;51.982;5.878;2023-03-01T05:22:17;2.60;92.60
39033;DHT22;24794;51.982;5.878;2023-03-01T05:23:19;2.60;92.60
39033;DHT22;24794;51.982;5.878;2023-03-01T05:24:20;2.50;92.60
39033;DHT22;24794;51.982;5.878;2023-03-01T05:25:20;2.50;92.60
39033;DHT22;24794;51.982;5.878;2023-03-01T05:26:21;2.50;92.60
39033;DHT22;24794;51.982;5.878;2023-03-01T05:27:22;2.50;92.70
39033;DHT22;24794;51.982;5.878;2023-03-01T05:28:22;2.50;92.70
39033;DHT22;24794;51.982;5.878;2023-03-01T05:29:25;2.50;92.70
39033;DHT22;24794;51.982;5.878;2023-03-01T05:30:25;2.40;93.00
39033;DHT22;24794;51.982;5.878;2023-03-01T05:31:27;2.40;92.80
39033;DHT22;24794;51.982;5.878;2023-03-01T05:32:28;2.40;92.80
39033;DHT22;24794;51.982;5.878;2023-03-01T05:33:32;2.40;92.80
39033;DHT22;24794;51.982;5.878;2023-03-01T05:34:35;2.40;92.80
39033;DHT22;24794;51.982;5.878;2023-03-01T05:35:36;2.40;92.90
39033;DHT22;24794;51.982;5.878;2023-03-01T05:36:37;2.40;92.90
39033;DHT22;24794;51.982;5.878;2023-03-01T05:37:42;2.40;92.90
39033;DHT22;24794;51.982;5.878;2023-03-01T05:38:43;2.40;92.90
39033;DHT22;24794;51.982;5.878;2023-03-01T05:39:44;2.40;92.90
39033;DHT22;24794;51.982;5.878;2023-03-01T05:40:46;2.40;92.90
39033;DHT22;24794;51.982;5.878;2023-03-01T05:41:48;2.40;92.90
39033;DHT22;24794;51.982;5.878;2023-03-01T05:42:51;2.40;92.90
39033;DHT22;24794;51.982;5.878;2023-03-01T05:43:52;2.40;92.90
39033;DHT22;24794;51.982;5.878;2023-03-01T05:44:53;2.40;93.00
39033;DHT22;24794;51.982;5.878;2023-03-01T05:45:53;2.40;93.00
39033;DHT22;24794;51.982;5.878;2023-03-01T05:46:54;2.40;93.00
39033;DHT22;24794;51.982;5.878;2023-03-01T05:47:55;2.40;93.00
39033;DHT22;24794;51.982;5.878;2023-03-01T05:48:56;2.50;93.00
39033;DHT22;24794;51.982;5.878;2023-03-01T05:49:56;2.50;93.00
39033;DHT22;24794;51.982;5.878;2023-03-01T05:50:59;2.50;93.00
39033;DHT22;24794;51.982;5.878;2023-03-01T05:52:00;2.50;93.00
39033;DHT22;24794;51.982;5.878;2023-03-01T05:53:06;2.40;92.90
39033;DHT22;24794;51.982;5.878;2023-03-01T05:54:08;2.50;93.00
39033;DHT22;24794;51.982;5.878;2023-03-01T05:55:09;2.50;93.00
39033;DHT22;24794;51.982;5.878;2023-03-01T05:56:10;2.50;93.00
39033;DHT22;24794;51.982;5.878;2023-03-01T05:57:11;2.50;93.00
39033;DHT22;24794;51.982;5.878;2023-03-01T05:58:14;2.50;93.00
39033;DHT22;24794;51.982;5.878;2023-03-01T05:59:14;2.50;93.00
39033;DHT22;24794;51.982;5.878;2023-03-01T06:00:18;2.40;93.00
39033;DHT22;24794;51.982;5.878;2023-03-01T06:01:19;2.50;93.10
39033;DHT22;24794;51.982;5.878;2023-03-01T06:02:19;2.50;93.10
39033;DHT22;24794;51.982;5.878;2023-03-01T06:03:20;2.50;93.10
39033;DHT22;24794;51.982;5.878;2023-03-01T06:04:21;2.50;93.10
39033;DHT22;24794;51.982;5.878;2023-03-01T06:05:21;2.50;93.10
39033;DHT22;24794;51.982;5.878;2023-03-01T06:06:23;2.50;93.10
39033;DHT22;24794;51.982;5.878;2023-03-01T06:07:24;2.50;93.10
39033;DHT22;24794;51.982;5.878;2023-03-01T06:08:24;2.40;93.10
39033;DHT22;24794;51.982;5.878;2023-03-01T06:09:27;2.40;93.10
39033;DHT22;24794;51.982;5.878;2023-03-01T06:10:28;2.40;93.10
39033;DHT22;24794;51.982;5.878;2023-03-01T06:11:29;2.40;93.10
39033;DHT22;24794;51.982;5.878;2023-03-01T06:12:34;2.40;93.40
39033;DHT22;24794;51.982;5.878;2023-03-01T06:13:35;2.40;93.10
39033;DHT22;24794;51.982;5.878;2023-03-01T06:14:36;2.50;93.20
39033;DHT22;24794;51.982;5.878;2023-03-01T06:15:36;2.50;93.20
39033;DHT22;24794;51.982;5.878;2023-03-01T06:16:37;2.50;93.20
39033;DHT22;24794;51.982;5.878;2023-03-01T06:17:39;2.50;93.20
39033;DHT22;24794;51.982;5.878;2023-03-01T06:18:41;2.50;93.20
39033;DHT22;24794;51.982;5.878;2023-03-01T06:19:41;2.50;93.20
39033;DHT22;24794;51.982;5.878;2023-03-01T06:20:42;2.60;93.20
39033;DHT22;24794;51.982;5.878;2023-03-01T06:21:42;2.60;93.20
39033;DHT22;24794;51.982;5.878;2023-03-01T06:22:43;2.60;93.10
39033;DHT22;24794;51.982;5.878;2023-03-01T06:23:44;2.60;93.10
39033;DHT22;24794;51.982;5.878;2023-03-01T06:24:44;2.60;93.10
39033;DHT22;24794;51.982;5.878;2023-03-01T06:25:45;2.70;93.10
39033;DHT22;24794;51.982;5.878;2023-03-01T06:26:46;2.70;93.10
39033;DHT22;24794;51.982;5.878;2023-03-01T06:27:47;2.70;93.10
39033;DHT22;24794;51.982;5.878;2023-03-01T06:28:48;2.70;93.10
39033;DHT22;24794;51.982;5.878;2023-03-01T06:29:49;2.70;93.20
39033;DHT22;24794;51.982;5.878;2023-03-01T06:30:50;2.70;93.10
39033;DHT22;24794;51.982;5.878;2023-03-01T06:31:51;2.80;93.10
39033;DHT22;24794;51.982;5.878;2023-03-01T06:32:53;2.70;93.10
39033;DHT22;24794;51.982;5.878;2023-03-01T06:34:01;2.80;93.10
39033;DHT22;24794;51.982;5.878;2023-03-01T06:35:01;2.70;93.10
39033;DHT22;24794;51.982;5.878;2023-03-01T06:36:02;2.70;93.10
39033;DHT22;24794;51.982;5.878;2023-03-01T06:37:04;2.80;93.10
39033;DHT22;24794;51.982;5.878;2023-03-01T06:38:07;2.80;93.10
39033;DHT22;24794;51.982;5.878;2023-03-01T06:39:07;2.80;93.00
39033;DHT22;24794;51.982;5.878;2023-03-01T06:40:09;2.80;93.10
39033;DHT22;24794;51.982;5.878;2023-03-01T06:41:11;2.80;93.10
39033;DHT22;24794;51.982;5.878;2023-03-01T06:42:12;2.80;93.10
39033;DHT22;24794;51.982;5.878;2023-03-01T06:43:12;2.80;93.10
39033;DHT22;24794;51.982;5.878;2023-03-01T06:44:13;2.80;93.10
39033;DHT22;24794;51.982;5.878;2023-03-01T06:45:14;2.80;93.00
39033;DHT22;24794;51.982;5.878;2023-03-01T06:46:14;2.80;93.00
39033;DHT22;24794;51.982;5.878;2023-03-01T06:47:15;2.80;93.00
39033;DHT22;24794;51.982;5.878;2023-03-01T06:48:16;2.80;93.10